Time;durP1;ratioP1;P1;durP2;ratioP2;P2;SDS_P1;SDS_P2;PMS_P1;PMS_P2;Temp;Humidity;BMP_temperature;BMP_pressure;BME280_temperature;BME280_humidity;BME280_pressure;Samples;Min_cycle;Max_cycle;Signal;HPM_P1;HPM_P2
2024/01/07 00:00:42;;;;;;;63.53;26.67;;;1.40;99.90;;;;;;5053068;28;20029;-73
2024/01/07 00:03:08;;;;;;;64.28;27.52;;;1.50;99.90;;;;;;5053438;28;20061;-74
2024/01/07 00:05:36;;;;;;;65.97;28.45;;;1.50;99.90;;;;;;5052828;28;20111;-75
2024/01/07 00:08:02;;;;;;;67.40;26.85;;;1.40;99.90;;;;;;5053429;28;20024;-75
2024/01/07 00:10:27;;;;;;;65.10;26.92;;;1.40;99.90;;;;;;5053158;28;20457;-74
2024/01/07 00:12:53;;;;;;;63.60;27.08;;;1.40;99.90;;;;;;5053450;28;20029;-74
2024/01/07 00:15:18;;;;;;;74.43;30.10;;;1.40;99.90;;;;;;5053424;28;20107;-73
2024/01/07 00:17:44;;;;;;;65.20;28.20;;;1.50;99.90;;;;;;5053153;28;20043;-74
2024/01/07 00:20:10;;;;;;;67.72;29.08;;;1.50;99.90;;;;;;5053091;28;20025;-75
2024/01/07 00:22:36;;;;;;;73.40;29.98;;;1.50;99.90;;;;;;5052666;28;20417;-75
2024/01/07 00:25:01;;;;;;;75.50;30.23;;;1.50;99.90;;;;;;5053128;28;20071;-74
2024/01/07 00:27:27;;;;;;;75.63;29.63;;;1.50;99.90;;;;;;5052841;28;20028;-74
2024/01/07 00:29:52;;;;;;;70.38;29.00;;;1.50;99.90;;;;;;5053047;28;20040;-74
2024/01/07 00:32:18;;;;;;;71.50;30.77;;;1.50;99.90;;;;;;5052736;28;20017;-74
2024/01/07 00:34:44;;;;;;;70.30;29.35;;;1.50;99.90;;;;;;5053017;28;20065;-73
2024/01/07 00:37:09;;;;;;;69.35;27.55;;;1.50;99.90;;;;;;5053211;28;20387;-74
2024/01/07 00:39:35;;;;;;;63.50;29.52;;;1.50;99.90;;;;;;5052607;28;20044;-74
2024/01/07 00:42:00;;;;;;;56.15;26.05;;;1.50;99.90;;;;;;5052566;28;20021;-74
2024/01/07 00:44:26;;;;;;;52.72;24.63;;;1.40;99.90;;;;;;5052757;28;20071;-74
2024/01/07 00:46:51;;;;;;;59.20;27.60;;;1.40;99.90;;;;;;5054370;28;20021;-74
2024/01/07 00:49:17;;;;;;;62.47;25.58;;;1.40;99.90;;;;;;5056610;28;20390;-74
2024/01/07 00:51:43;;;;;;;61.70;27.02;;;1.40;99.90;;;;;;5056524;28;20082;-73
2024/01/07 00:54:08;;;;;;;61.33;27.67;;;1.40;99.90;;;;;;5056204;28;20239;-74
2024/01/07 00:56:34;;;;;;;55.53;23.73;;;1.40;99.90;;;;;;5056284;28;20503;-74
2024/01/07 00:58:59;;;;;;;56.00;26.65;;;1.40;99.90;;;;;;5055808;28;20017;-74
2024/01/07 01:01:25;;;;;;;56.05;26.70;;;1.40;99.90;;;;;;5056281;28;20021;-74
2024/01/07 01:03:50;;;;;;;56.42;24.77;;;1.50;99.90;;;;;;5055898;28;20037;-74
2024/01/07 01:06:16;;;;;;;52.65;25.20;;;1.50;99.90;;;;;;5056209;28;20032;-74
2024/01/07 01:08:41;;;;;;;47.55;23.67;;;1.50;99.90;;;;;;5056097;28;20031;-74
2024/01/07 01:11:10;;;;;;;52.33;25.83;;;1.50;99.90;;;;;;5056178;28;20029;-74
2024/01/07 01:13:35;;;;;;;54.28;25.17;;;1.50;99.90;;;;;;5056046;28;20021;-74
2024/01/07 01:16:01;;;;;;;51.40;23.40;;;1.50;99.90;;;;;;5056215;28;20123;-74
2024/01/07 01:18:26;;;;;;;53.20;25.35;;;1.40;99.90;;;;;;5055923;28;20106;-74
2024/01/07 01:20:52;;;;;;;57.05;25.38;;;1.40;99.90;;;;;;5056082;28;20033;-74
2024/01/07 01:23:18;;;;;;;51.95;23.92;;;1.40;99.90;;;;;;5056007;28;20025;-74
2024/01/07 01:25:43;;;;;;;51.97;23.02;;;1.40;99.90;;;;;;5055584;28;20031;-73
2024/01/07 01:28:09;;;;;;;50.30;24.35;;;1.40;99.90;;;;;;5055917;28;20134;-74
2024/01/07 01:30:35;;;;;;;49.20;24.48;;;1.40;99.90;;;;;;5055301;28;20548;-74
2024/01/07 01:33:02;;;;;;;48.20;24.23;;;1.40;99.90;;;;;;5055993;28;20029;-74
2024/01/07 01:35:27;;;;;;;48.28;23.83;;;1.40;99.90;;;;;;5055558;28;20146;-74
2024/01/07 01:37:54;;;;;;;47.97;23.63;;;1.40;99.90;;;;;;5055243;28;20025;-73
2024/01/07 01:40:20;;;;;;;48.88;24.88;;;1.50;99.90;;;;;;5055518;28;20044;-74
2024/01/07 01:42:48;;;;;;;48.38;23.67;;;1.40;99.90;;;;;;5055302;28;20021;-74
2024/01/07 01:45:14;;;;;;;42.80;21.73;;;1.50;99.90;;;;;;5056075;28;20028;-73
2024/01/07 01:47:41;;;;;;;44.92;23.05;;;1.40;99.90;;;;;;5055467;28;20072;-74
2024/01/07 01:50:07;;;;;;;47.25;24.00;;;1.40;99.90;;;;;;5055469;28;20036;-74
2024/01/07 01:52:33;;;;;;;44.85;22.42;;;1.40;99.90;;;;;;5055361;28;20028;-74
2024/01/07 01:54:59;;;;;;;46.55;22.77;;;1.40;99.90;;;;;;5055058;28;20036;-74
2024/01/07 01:57:34;;;;;;;44.55;22.60;;;1.40;99.90;;;;;;5055393;28;20029;-74
2024/01/07 02:00:03;;;;;;;44.88;23.55;;;1.30;99.90;;;;;;5055047;28;20395;-74
2024/01/07 02:02:31;;;;;;;40.35;21.33;;;1.30;99.90;;;;;;5055009;28;20439;-74
2024/01/07 02:04:57;;;;;;;43.30;21.05;;;1.30;99.90;;;;;;5055121;28;20064;-74
2024/01/07 02:07:24;;;;;;;49.67;23.27;;;1.30;99.90;;;;;;5054928;28;20063;-73
2024/01/07 02:09:49;;;;;;;43.38;22.60;;;1.30;99.90;;;;;;5055375;28;20040;-73
2024/01/07 02:12:15;;;;;;;41.45;21.52;;;1.30;99.90;;;;;;5055144;28;20037;-73
2024/01/07 02:14:40;;;;;;;42.55;22.10;;;1.30;99.90;;;;;;5055002;28;20029;-74
2024/01/07 02:17:06;;;;;;;41.75;21.73;;;1.30;99.90;;;;;;5054863;28;20033;-74
2024/01/07 02:19:32;;;;;;;39.03;20.75;;;1.30;99.90;;;;;;5054619;28;20021;-74
2024/01/07 02:21:57;;;;;;;42.08;22.00;;;1.30;99.90;;;;;;5054825;28;20391;-74
2024/01/07 02:24:23;;;;;;;41.90;21.50;;;1.30;99.90;;;;;;5054749;28;20025;-74
2024/01/07 02:26:48;;;;;;;42.55;21.23;;;1.30;99.90;;;;;;5054319;28;20025;-73
2024/01/07 02:29:14;;;;;;;39.72;20.77;;;1.30;99.90;;;;;;5054605;28;20031;-73
2024/01/07 02:31:39;;;;;;;47.53;24.75;;;1.30;99.90;;;;;;5054329;28;20032;-73
2024/01/07 02:34:05;;;;;;;45.45;21.75;;;1.20;99.90;;;;;;5054569;28;20037;-73
2024/01/07 02:36:30;;;;;;;42.28;22.42;;;1.20;99.90;;;;;;5054564;28;20036;-74
2024/01/07 02:38:56;;;;;;;47.55;24.30;;;1.30;99.90;;;;;;5053894;28;20466;-74
2024/01/07 02:41:25;;;;;;;47.22;23.45;;;1.20;99.90;;;;;;5054418;28;20418;-74
2024/01/07 02:43:51;;;;;;;47.55;24.42;;;1.30;99.90;;;;;;5054508;28;20387;-73
2024/01/07 02:46:16;;;;;;;45.58;23.33;;;1.30;99.90;;;;;;5054424;28;20022;-74
2024/01/07 02:48:42;;;;;;;48.72;23.83;;;1.30;99.90;;;;;;5054396;28;20466;-74
2024/01/07 02:51:08;;;;;;;44.70;22.85;;;1.30;99.90;;;;;;5054218;28;20036;-73
2024/01/07 02:53:34;;;;;;;46.80;22.30;;;1.30;99.90;;;;;;5054094;28;20391;-74
2024/01/07 02:56:00;;;;;;;42.88;21.52;;;1.30;99.90;;;;;;5053902;28;20029;-74
2024/01/07 02:58:25;;;;;;;39.67;20.98;;;1.30;99.90;;;;;;5053871;28;20537;-73
2024/01/07 03:00:51;;;;;;;39.63;20.35;;;1.30;99.90;;;;;;5053902;28;20025;-73
2024/01/07 03:03:17;;;;;;;40.92;19.30;;;1.20;99.90;;;;;;5053868;28;20029;-74
2024/01/07 03:05:42;;;;;;;39.85;20.17;;;1.20;99.90;;;;;;5053512;28;20025;-74
2024/01/07 03:08:08;;;;;;;41.40;20.17;;;1.20;99.90;;;;;;5053838;28;20029;-73
2024/01/07 03:10:33;;;;;;;40.90;20.02;;;1.20;99.90;;;;;;5052976;28;20372;-74
2024/01/07 03:13:00;;;;;;;35.63;18.42;;;1.20;99.90;;;;;;5053719;28;20047;-74
2024/01/07 03:15:26;;;;;;;39.20;20.33;;;1.20;99.90;;;;;;5053737;28;20041;-73
2024/01/07 03:17:51;;;;;;;36.72;18.92;;;1.10;99.90;;;;;;5053658;28;20032;-74
2024/01/07 03:20:17;;;;;;;41.90;20.80;;;1.10;99.90;;;;;;5053386;28;20043;-73
2024/01/07 03:22:42;;;;;;;38.40;19.20;;;1.10;99.90;;;;;;5053171;28;20120;-74
2024/01/07 03:25:08;;;;;;;40.92;20.60;;;1.10;99.90;;;;;;5053486;28;20021;-73
2024/01/07 03:27:34;;;;;;;41.85;19.80;;;1.10;99.90;;;;;;5053112;28;20094;-74
2024/01/07 03:30:00;;;;;;;40.25;21.90;;;1.00;99.90;;;;;;5053401;28;20033;-73
2024/01/07 03:32:25;;;;;;;40.13;21.25;;;1.10;99.90;;;;;;5053015;28;20033;-73
2024/01/07 03:34:51;;;;;;;39.92;18.98;;;1.10;99.90;;;;;;5053351;28;20037;-73
2024/01/07 03:37:17;;;;;;;40.53;19.90;;;1.00;99.90;;;;;;5053566;28;20033;-73
2024/01/07 03:39:45;;;;;;;41.63;20.65;;;1.00;99.90;;;;;;5053029;28;20048;-73
2024/01/07 03:42:11;;;;;;;43.83;22.08;;;1.00;99.90;;;;;;5053389;28;20387;-73
2024/01/07 03:44:38;;;;;;;44.85;20.35;;;0.90;99.90;;;;;;5052892;28;20022;-74
2024/01/07 03:47:04;;;;;;;45.88;22.10;;;0.90;99.90;;;;;;5053270;28;20090;-73
2024/01/07 03:49:30;;;;;;;48.13;21.90;;;1.00;99.90;;;;;;5053266;28;20033;-73
2024/01/07 03:51:56;;;;;;;41.75;21.48;;;1.00;99.90;;;;;;5053113;28;20033;-73
2024/01/07 03:54:21;;;;;;;46.10;21.67;;;1.00;99.90;;;;;;5052764;28;20029;-73
2024/01/07 03:56:47;;;;;;;47.90;21.17;;;1.00;99.90;;;;;;5053147;28;20033;-73
2024/01/07 03:59:12;;;;;;;46.17;21.25;;;1.00;99.90;;;;;;5053007;28;20033;-74
2024/01/07 04:01:38;;;;;;;44.60;22.65;;;1.00;99.90;;;;;;5053061;28;20036;-74
2024/01/07 04:04:03;;;;;;;42.90;21.45;;;1.00;99.90;;;;;;5053049;28;20087;-73
2024/01/07 04:06:29;;;;;;;46.30;22.10;;;0.90;99.90;;;;;;5052598;28;20557;-74
2024/01/07 04:08:54;;;;;;;41.67;22.13;;;1.00;99.90;;;;;;5052879;28;20033;-74
2024/01/07 04:11:20;;;;;;;40.05;20.73;;;1.00;99.90;;;;;;5053112;28;20048;-73
2024/01/07 04:13:45;;;;;;;41.15;21.23;;;0.90;99.90;;;;;;5052896;28;20079;-73
2024/01/07 04:16:18;;;;;;;41.03;20.25;;;1.00;99.90;;;;;;5052980;28;20086;-74
2024/01/07 04:18:45;;;;;;;;;;;0.90;99.90;;;;;;5052930;28;20028;-74
2024/01/07 04:21:11;;;;;;;41.60;19.23;;;1.00;99.90;;;;;;5053753;28;20005;-74
2024/01/07 04:23:38;;;;;;;42.15;21.33;;;0.90;99.90;;;;;;5056832;28;20083;-73
2024/01/07 04:26:04;;;;;;;44.00;22.67;;;0.90;99.90;;;;;;5056821;28;20029;-73
2024/01/07 04:28:30;;;;;;;42.10;22.10;;;0.90;99.90;;;;;;5056899;28;20032;-73
2024/01/07 04:30:55;;;;;;;47.70;23.10;;;0.90;99.90;;;;;;5056554;28;20025;-73
2024/01/07 04:33:21;;;;;;;49.63;23.55;;;1.00;99.90;;;;;;5057077;28;20087;-73
2024/01/07 04:35:46;;;;;;;45.05;22.50;;;0.90;99.90;;;;;;5056613;28;20100;-73
2024/01/07 04:38:12;;;;;;;47.58;23.40;;;0.90;99.90;;;;;;5056749;28;20063;-73
2024/01/07 04:40:37;;;;;;;49.10;24.88;;;1.00;99.90;;;;;;5056158;28;20037;-73
2024/01/07 04:43:03;;;;;;;45.13;22.42;;;1.00;99.90;;;;;;5056318;28;20472;-73
2024/01/07 04:45:28;;;;;;;49.63;23.13;;;1.00;99.90;;;;;;5056362;28;20032;-73
2024/01/07 04:47:54;;;;;;;48.05;24.13;;;1.00;99.90;;;;;;5056287;28;20071;-73
2024/01/07 04:50:20;;;;;;;48.90;23.33;;;1.00;99.90;;;;;;5056197;28;20029;-73
2024/01/07 04:52:46;;;;;;;50.13;25.65;;;1.00;99.90;;;;;;5055943;28;20021;-73
2024/01/07 04:55:12;;;;;;;49.30;25.15;;;1.00;99.90;;;;;;5056280;28;20036;-73
2024/01/07 04:57:37;;;;;;;50.92;25.67;;;1.00;99.90;;;;;;5056079;28;20025;-73
2024/01/07 05:00:04;;;;;;;46.72;24.65;;;1.00;99.90;;;;;;5055526;28;20024;-73
2024/01/07 05:02:29;;;;;;;44.22;21.85;;;1.00;99.90;;;;;;5056032;28;20033;-73
2024/01/07 05:04:55;;;;;;;50.55;24.95;;;1.00;99.90;;;;;;5056022;28;20086;-73
2024/01/07 05:07:20;;;;;;;49.38;22.95;;;1.00;99.90;;;;;;5055553;28;20112;-73
2024/01/07 05:09:46;;;;;;;46.28;21.55;;;1.00;99.90;;;;;;5055493;28;20116;-73
2024/01/07 05:12:11;;;;;;;48.55;23.88;;;0.90;99.90;;;;;;5055881;28;20025;-73
2024/01/07 05:14:37;;;;;;;51.55;25.23;;;0.90;99.90;;;;;;5055773;28;20021;-73
2024/01/07 05:17:03;;;;;;;52.05;24.48;;;1.00;99.90;;;;;;5055759;28;20086;-73
2024/01/07 05:19:29;;;;;;;52.85;25.08;;;1.00;99.90;;;;;;5055617;28;20036;-73
2024/01/07 05:21:55;;;;;;;47.92;23.80;;;1.00;99.90;;;;;;5055167;28;20439;-73
2024/01/07 05:24:21;;;;;;;45.28;23.83;;;1.00;99.90;;;;;;5055696;28;20025;-73
2024/01/07 05:26:46;;;;;;;48.53;24.13;;;1.00;99.90;;;;;;5055648;28;20037;-73
2024/01/07 05:29:12;;;;;;;45.15;22.33;;;1.00;99.90;;;;;;5055487;28;20061;-73
2024/01/07 05:31:39;;;;;;;45.65;23.90;;;0.90;99.90;;;;;;5055246;28;20052;-73
2024/01/07 05:34:05;;;;;;;42.63;21.70;;;1.00;99.90;;;;;;5055262;28;20029;-73
2024/01/07 05:36:30;;;;;;;44.42;23.35;;;0.90;99.90;;;;;;5055318;28;20036;-73
2024/01/07 05:38:56;;;;;;;44.63;22.17;;;0.90;99.90;;;;;;5054814;28;20531;-73
2024/01/07 05:41:21;;;;;;;37.03;19.88;;;0.90;99.90;;;;;;5054991;28;20098;-73
2024/01/07 05:43:47;;;;;;;47.53;22.25;;;0.90;99.90;;;;;;5055280;28;20512;-72
2024/01/07 05:46:12;;;;;;;42.13;21.08;;;0.90;99.90;;;;;;5055248;28;20028;-73
2024/01/07 05:48:44;;;;;;;39.60;20.38;;;0.90;99.90;;;;;;5055200;28;20025;-73
2024/01/07 05:51:09;;;;;;;38.47;19.40;;;0.90;99.90;;;;;;5055048;28;20033;-73
2024/01/07 05:53:35;;;;;;;41.15;21.30;;;0.90;99.90;;;;;;5054974;28;20048;-73
2024/01/07 05:56:00;;;;;;;38.13;20.50;;;0.90;99.90;;;;;;5054928;28;20033;-73
2024/01/07 05:58:26;;;;;;;39.38;20.50;;;1.00;99.90;;;;;;5055049;28;20029;-73
2024/01/07 06:00:51;;;;;;;40.97;21.45;;;0.90;99.90;;;;;;5054657;28;20123;-73
2024/01/07 06:03:17;;;;;;;30.80;15.27;;;1.00;99.90;;;;;;5054967;28;20070;-73
2024/01/07 06:05:42;;;;;;;36.97;19.08;;;0.90;99.90;;;;;;5054922;28;20040;-73
2024/01/07 06:08:08;;;;;;;36.70;18.50;;;0.90;99.90;;;;;;5054381;28;20021;-73
2024/01/07 06:10:34;;;;;;;32.20;16.50;;;0.90;99.90;;;;;;5054644;28;20060;-73
2024/01/07 06:12:59;;;;;;;34.30;17.30;;;0.90;99.90;;;;;;5054320;28;20032;-73
2024/01/07 06:15:25;;;;;;;30.98;16.88;;;0.90;99.90;;;;;;5054698;28;20037;-73
2024/01/07 06:17:50;;;;;;;27.48;15.05;;;0.90;99.90;;;;;;5054300;28;20025;-73
2024/01/07 06:20:16;;;;;;;26.25;14.82;;;0.80;99.90;;;;;;5054180;28;20410;-73
2024/01/07 06:22:42;;;;;;;26.35;15.35;;;0.70;99.90;;;;;;5054055;28;20021;-73
2024/01/07 06:25:07;;;;;;;29.23;16.58;;;0.60;99.90;;;;;;5054419;28;20136;-73
2024/01/07 06:27:33;;;;;;;30.30;14.38;;;0.60;99.90;;;;;;5054350;28;20025;-73
2024/01/07 06:29:58;;;;;;;29.13;15.15;;;0.60;99.90;;;;;;5054323;28;20486;-73
2024/01/07 06:32:25;;;;;;;26.75;14.55;;;0.50;99.90;;;;;;5054244;28;20394;-73
2024/01/07 06:34:50;;;;;;;33.05;15.38;;;0.50;99.90;;;;;;5054337;28;20028;-73
2024/01/07 06:37:16;;;;;;;29.75;14.90;;;0.60;99.90;;;;;;5054335;28;20033;-73
2024/01/07 06:39:41;;;;;;;27.73;15.40;;;0.50;99.90;;;;;;5053856;28;20494;-73
2024/01/07 06:42:07;;;;;;;30.48;16.73;;;0.50;99.90;;;;;;5053763;28;20494;-73
2024/01/07 06:44:32;;;;;;;30.05;16.05;;;0.50;99.90;;;;;;5053013;28;20074;-73
2024/01/07 06:46:58;;;;;;;33.90;17.30;;;0.50;99.90;;;;;;5054022;28;20104;-73
2024/01/07 06:49:23;;;;;;;28.60;15.57;;;0.50;99.90;;;;;;5053792;28;20505;-73
2024/01/07 06:51:49;;;;;;;31.40;17.45;;;0.50;99.90;;;;;;5054096;28;20036;-73
2024/01/07 06:54:14;;;;;;;32.42;16.98;;;0.50;99.90;;;;;;5054076;28;20056;-73
2024/01/07 06:56:40;;;;;;;36.22;18.58;;;0.50;99.90;;;;;;5053851;28;20118;-73
2024/01/07 06:59:07;;;;;;;29.77;15.23;;;0.50;99.90;;;;;;5053358;28;20028;-73
2024/01/07 07:01:32;;;;;;;33.95;17.77;;;0.50;99.90;;;;;;5053812;28;20498;-73
2024/01/07 07:03:58;;;;;;;33.47;18.35;;;0.40;99.90;;;;;;5053742;28;20025;-73
2024/01/07 07:06:24;;;;;;;31.98;17.00;;;0.40;99.90;;;;;;5053796;28;20055;-73
2024/01/07 07:08:49;;;;;;;38.50;17.65;;;0.40;99.90;;;;;;5053350;28;20061;-73
2024/01/07 07:11:16;;;;;;;39.05;19.05;;;0.40;99.90;;;;;;5053841;28;20476;-73
2024/01/07 07:13:41;;;;;;;35.17;17.85;;;0.40;99.90;;;;;;5053542;28;20032;-74
2024/01/07 07:16:07;;;;;;;38.00;19.20;;;0.40;99.90;;;;;;5053150;28;20025;-74
2024/01/07 07:18:33;;;;;;;33.95;16.73;;;0.40;99.90;;;;;;5053491;28;20463;-74
2024/01/07 07:20:58;;;;;;;36.40;18.08;;;0.40;99.90;;;;;;5053077;28;20115;-73
2024/01/07 07:23:24;;;;;;;31.35;16.25;;;0.40;99.90;;;;;;5053548;28;20498;-74
2024/01/07 07:25:49;;;;;;;35.28;16.48;;;0.30;99.90;;;;;;5053431;28;20025;-73
2024/01/07 07:28:17;;;;;;;26.52;15.35;;;0.50;99.90;;;;;;5053492;28;20100;-73
2024/01/07 07:30:43;;;;;;;26.50;14.57;;;0.30;99.90;;;;;;5053446;28;20029;-73
2024/01/07 07:33:08;;;;;;;28.42;15.35;;;0.40;99.90;;;;;;5052843;28;20505;-73
2024/01/07 07:35:34;;;;;;;27.30;15.15;;;0.40;99.90;;;;;;5053270;28;20032;-74
2024/01/07 07:37:59;;;;;;;29.45;14.90;;;0.40;99.90;;;;;;5052998;28;20036;-73
2024/01/07 07:40:25;;;;;;;32.50;15.05;;;0.40;99.90;;;;;;5052994;28;20037;-73
2024/01/07 07:42:51;;;;;;;28.83;15.35;;;0.40;99.90;;;;;;5052875;28;20019;-73
2024/01/07 07:45:16;;;;;;;23.50;14.02;;;0.40;99.90;;;;;;5052739;28;20029;-74
2024/01/07 07:47:44;;;;;;;23.02;12.85;;;0.40;99.90;;;;;;5053215;28;20025;-74
2024/01/07 07:50:11;;;;;;;26.83;13.63;;;0.40;99.90;;;;;;5053126;28;20566;-73
2024/01/07 07:52:36;;;;;;;24.40;13.05;;;0.40;99.90;;;;;;5053149;28;20027;-74
2024/01/07 07:55:02;;;;;;;24.30;13.55;;;0.40;99.90;;;;;;5053669;28;20112;-73
2024/01/07 07:57:28;;;;;;;21.08;12.35;;;0.40;99.90;;;;;;5057263;28;20037;-73
2024/01/07 07:59:54;;;;;;;21.60;12.48;;;0.30;99.90;;;;;;5056947;28;20063;-73
2024/01/07 08:02:20;;;;;;;21.15;12.50;;;0.40;99.90;;;;;;5057161;28;20060;-73
2024/01/07 08:04:47;;;;;;;21.83;12.25;;;0.30;99.90;;;;;;5056830;28;20395;-73
2024/01/07 08:07:12;;;;;;;21.45;12.70;;;0.40;99.90;;;;;;5057019;28;20112;-73
2024/01/07 08:09:38;;;;;;;21.88;12.77;;;0.40;99.90;;;;;;5056968;28;20203;-73
2024/01/07 08:12:05;;;;;;;22.02;12.30;;;0.30;99.90;;;;;;5056985;28;20029;-73
2024/01/07 08:14:31;;;;;;;25.10;12.65;;;0.30;99.90;;;;;;5056894;28;20059;-73
2024/01/07 08:16:57;;;;;;;24.40;12.88;;;0.30;99.90;;;;;;5056947;28;20025;-73
2024/01/07 08:19:23;;;;;;;25.15;13.10;;;0.40;99.90;;;;;;5056728;28;20032;-73
2024/01/07 08:21:48;;;;;;;21.48;12.90;;;0.40;99.90;;;;;;5056870;28;20029;-73
2024/01/07 08:24:14;;;;;;;23.25;12.20;;;0.30;99.90;;;;;;5056527;28;20017;-73
2024/01/07 08:26:40;;;;;;;22.05;13.27;;;0.30;99.90;;;;;;5056264;28;20033;-73
2024/01/07 08:29:06;;;;;;;23.58;13.13;;;0.40;99.90;;;;;;5056637;28;20025;-74
2024/01/07 08:31:31;;;;;;;24.83;12.80;;;0.30;99.90;;;;;;5056684;28;20036;-74
2024/01/07 08:33:57;;;;;;;20.75;12.80;;;0.30;99.90;;;;;;5056629;28;20119;-73
2024/01/07 08:36:23;;;;;;;25.77;14.00;;;0.20;99.90;;;;;;5056609;28;20450;-73
2024/01/07 08:38:49;;;;;;;25.17;14.23;;;0.30;99.90;;;;;;5056249;28;20514;-73
2024/01/07 08:41:16;;;;;;;21.35;12.75;;;0.30;99.90;;;;;;5056296;28;20024;-73
2024/01/07 08:43:42;;;;;;;23.10;13.80;;;0.30;99.90;;;;;;5056026;28;20036;-73
2024/01/07 08:46:07;;;;;;;26.63;12.82;;;0.30;99.90;;;;;;5055949;28;20021;-73
2024/01/07 08:48:33;;;;;;;21.75;11.98;;;0.20;99.90;;;;;;5056295;28;20039;-73
2024/01/07 08:50:58;;;;;;;21.80;11.45;;;0.30;99.90;;;;;;5056341;28;20094;-73
2024/01/07 08:53:24;;;;;;;19.33;11.27;;;0.30;99.90;;;;;;5055901;28;20032;-73
2024/01/07 08:55:50;;;;;;;21.20;11.38;;;0.40;99.90;;;;;;5055813;28;20505;-73
2024/01/07 08:58:17;;;;;;;20.05;10.95;;;0.30;99.90;;;;;;5055885;28;20021;-73
2024/01/07 09:00:43;;;;;;;19.45;10.02;;;0.30;99.90;;;;;;5055791;28;20032;-73
2024/01/07 09:03:09;;;;;;;20.02;10.23;;;0.30;99.90;;;;;;5056022;28;20036;-73
2024/01/07 09:05:35;;;;;;;16.15;9.10;;;0.30;99.90;;;;;;5055645;28;20025;-72
2024/01/07 09:08:00;;;;;;;17.27;9.18;;;0.20;99.90;;;;;;5055187;28;20025;-72
2024/01/07 09:10:26;;;;;;;17.30;9.68;;;0.20;99.90;;;;;;5055963;28;20028;-73
2024/01/07 09:12:55;;;;;;;15.45;8.27;;;0.20;99.90;;;;;;5055528;28;20032;-73
2024/01/07 09:15:21;;;;;;;14.95;8.27;;;0.20;96.40;;;;;;5055424;28;20029;-73
2024/01/07 09:17:47;;;;;;;13.57;8.32;;;0.20;96.70;;;;;;5055853;28;20044;-73
2024/01/07 09:20:13;;;;;;;16.25;7.80;;;0.30;97.40;;;;;;5055504;28;20399;-73
2024/01/07 09:22:43;;;;;;;17.63;7.95;;;0.30;90.40;;;;;;5055709;28;20486;-73
2024/01/07 09:25:09;;;;;;;18.25;8.05;;;0.30;90.30;;;;;;5055221;28;20029;-73
2024/01/07 09:27:35;;;;;;;13.68;8.13;;;0.40;90.20;;;;;;5055259;28;20029;-73
2024/01/07 09:30:01;;;;;;;13.80;7.80;;;0.40;73.00;;;;;;5055447;28;20044;-73
2024/01/07 09:32:26;;;;;;;12.48;7.53;;;0.50;76.50;;;;;;5055549;28;20017;-73
2024/01/07 09:34:52;;;;;;;14.05;8.05;;;0.50;58.00;;;;;;5055429;28;20036;-72
2024/01/07 09:37:18;;;;;;;12.25;6.97;;;0.50;59.80;;;;;;5055510;28;20051;-73
2024/01/07 09:39:45;;;;;;;11.65;7.53;;;0.60;56.90;;;;;;5054957;28;20053;-73
2024/01/07 09:42:14;;;;;;;9.73;6.68;;;0.70;53.10;;;;;;5055219;28;20082;-73
2024/01/07 09:44:40;;;;;;;11.27;7.18;;;0.60;36.00;;;;;;5054837;28;20515;-73
2024/01/07 09:47:09;;;;;;;14.98;6.95;;;0.50;37.40;;;;;;5055188;28;20029;-73
2024/01/07 09:49:34;;;;;;;12.32;7.38;;;0.50;32.80;;;;;;5055209;28;20387;-73
2024/01/07 09:52:01;;;;;;;13.95;7.15;;;0.50;37.40;;;;;;5054703;28;20021;-73
2024/01/07 09:54:27;;;;;;;11.80;6.80;;;0.50;45.50;;;;;;5055129;28;20453;-73
2024/01/07 09:57:00;;;;;;;13.52;7.47;;;0.60;32.40;;;;;;5055061;28;20029;-73
2024/01/07 09:59:27;;;;;;;13.57;7.38;;;0.40;12.60;;;;;;5054879;28;20120;-73
2024/01/07 10:01:53;;;;;;;10.32;6.35;;;0.40;7.30;;;;;;5054805;28;20387;-72
2024/01/07 10:04:19;;;;;;;12.45;6.03;;;0.40;1.00;;;;;;5054628;28;20022;-73
2024/01/07 10:06:45;;;;;;;12.77;6.03;;;0.40;1.00;;;;;;5054751;28;20029;-72
2024/01/07 10:09:12;;;;;;;9.50;6.10;;;0.30;1.00;;;;;;5054855;28;20383;-73
2024/01/07 10:11:38;;;;;;;13.05;6.40;;;0.40;1.00;;;;;;5054725;28;20060;-73
2024/01/07 10:14:05;;;;;;;12.32;5.90;;;0.50;1.00;;;;;;5054252;28;20472;-73
2024/01/07 10:16:32;;;;;;;7.93;5.25;;;0.60;1.00;;;;;;5054573;28;20033;-73
2024/01/07 10:18:58;;;;;;;13.02;6.13;;;0.70;1.00;;;;;;5053486;28;20021;-73
2024/01/07 10:21:24;;;;;;;9.85;5.53;;;0.70;1.00;;;;;;5054670;28;20029;-73
2024/01/07 10:23:50;;;;;;;10.30;5.95;;;0.80;1.00;;;;;;5054580;28;20094;-73
2024/01/07 10:26:16;;;;;;;10.80;5.85;;;0.90;1.00;;;;;;5054533;28;20115;-72
2024/01/07 10:28:43;;;;;;;8.82;5.55;;;0.80;1.00;;;;;;5054449;28;20107;-72
2024/01/07 10:31:09;;;;;;;10.88;6.10;;;0.80;1.00;;;;;;5054388;28;20418;-72
2024/01/07 10:33:34;;;;;;;8.75;5.45;;;0.60;1.00;;;;;;5054381;28;20021;-72
2024/01/07 10:36:05;;;;;;;8.85;5.50;;;0.70;1.00;;;;;;5054261;28;20390;-72
2024/01/07 10:38:31;;;;;;;6.97;3.60;;;0.90;1.00;;;;;;5054046;28;20487;-73
2024/01/07 10:41:00;;;;;;;8.50;4.80;;;0.80;99.90;;;;;;5053985;28;20123;-72
2024/01/07 10:43:34;;;;;;;7.30;4.15;;;0.90;1.00;;;;;;5054094;28;20487;-71
2024/01/07 10:46:03;;;;;;;7.55;4.45;;;1.30;99.90;;;;;;5054092;28;20426;-72
2024/01/07 10:48:32;;;;;;;6.65;3.72;;;1.50;1.00;;;;;;5054251;28;20429;-72
2024/01/07 10:51:00;;;;;;;8.02;5.35;;;1.10;1.00;;;;;;5054089;28;20391;-72
2024/01/07 10:53:32;;;;;;;7.35;4.95;;;0.80;1.00;;;;;;5054097;28;20029;-72
2024/01/07 10:56:03;;;;;;;8.45;5.15;;;1.00;1.00;;;;;;5054034;28;20028;-71
2024/01/07 10:58:32;;;;;;;6.55;3.85;;;1.20;99.90;;;;;;5053969;28;20025;-72
2024/01/07 11:01:02;;;;;;;7.57;4.25;;;0.70;1.00;;;;;;5053456;28;20036;-75
2024/01/07 11:03:37;;;;;;;6.40;4.85;;;0.40;1.00;;;;;;5053715;28;20032;-74
2024/01/07 11:06:11;;;;;;;8.95;5.05;;;0.50;1.00;;;;;;5053750;28;20502;-73
2024/01/07 11:08:58;;;;;;;9.23;5.55;;;0.70;1.00;;;;;;5053699;28;20036;-74
2024/01/07 11:11:34;;;;;;;7.40;5.20;;;0.70;1.00;;;;;;5053618;28;20025;-73
2024/01/07 11:14:01;;;;;;;8.75;4.30;;;0.60;1.00;;;;;;5053651;28;20155;-73
2024/01/07 11:16:44;;;;;;;6.85;3.80;;;0.40;1.00;;;;;;5053144;28;20029;-73
2024/01/07 11:19:13;;;;;;;6.77;4.50;;;0.20;1.00;;;;;;5053055;28;20486;-73
2024/01/07 11:21:38;;;;;;;7.45;4.60;;;0.30;1.00;;;;;;5053148;28;20792;-73
2024/01/07 11:24:04;;;;;;;5.38;3.88;;;0.40;1.00;;;;;;5053125;28;20025;-73
2024/01/07 11:26:30;;;;;;;7.25;4.18;;;0.40;1.00;;;;;;5053447;28;20039;-73
2024/01/07 11:28:57;;;;;;;7.60;4.22;;;0.40;1.00;;;;;;5053122;28;20031;-73
2024/01/07 11:31:43;;;;;;;5.97;3.92;;;0.60;1.00;;;;;;5052715;28;20571;-75
2024/01/07 11:34:09;;;;;;;8.55;4.60;;;0.50;1.00;;;;;;5053573;28;20068;-74
2024/01/07 11:36:36;;;;;;;6.93;3.83;;;0.90;99.90;;;;;;5053310;28;20391;-73
2024/01/07 11:39:03;;;;;;;7.97;4.72;;;0.90;99.90;;;;;;5052910;28;20041;-74
2024/01/07 11:41:33;;;;;;;7.65;4.85;;;0.90;99.90;;;;;;5052656;28;21385;-74
2024/01/07 11:44:00;;;;;;;7.38;3.88;;;0.80;99.90;;;;;;5053464;28;20425;-74
2024/01/07 11:46:28;;;;;;;8.15;4.60;;;0.40;99.90;;;;;;5052901;28;20025;-74
2024/01/07 11:48:58;;;;;;;5.50;3.60;;;0.30;99.90;;;;;;5052849;28;20439;-75
2024/01/07 11:51:26;;;;;;;7.35;4.75;;;0.10;99.90;;;;;;5052850;28;20398;-73
2024/01/07 11:53:52;;;;;;;6.65;4.53;;;0.20;1.00;;;;;;5052781;28;20025;-74
2024/01/07 11:56:18;;;;;;;6.72;4.50;;;0.20;1.00;;;;;;5053096;28;20025;-74
2024/01/07 11:58:44;;;;;;;7.20;4.75;;;0.10;1.00;;;;;;5052673;28;20029;-74
2024/01/07 12:01:10;;;;;;;9.98;5.47;;;0.20;1.00;;;;;;5052595;28;20040;-74
2024/01/07 12:03:36;;;;;;;9.48;5.18;;;0.30;1.00;;;;;;5052529;28;20025;-75
2024/01/07 12:06:02;;;;;;;8.50;4.70;;;0.40;1.00;;;;;;5053028;28;20025;-74
2024/01/07 12:08:28;;;;;;;8.57;5.15;;;0.40;1.00;;;;;;5053115;28;20025;-74
2024/01/07 12:10:54;;;;;;;9.43;4.32;;;0.40;1.00;;;;;;5053080;28;20036;-73
2024/01/07 12:13:20;;;;;;;7.53;4.75;;;0.50;1.00;;;;;;5052648;28;20087;-74
2024/01/07 12:15:47;;;;;;;6.63;3.90;;;0.40;1.00;;;;;;5052891;28;20518;-74
2024/01/07 12:18:12;;;;;;;6.95;4.43;;;0.30;1.00;;;;;;5052802;28;20086;-74
2024/01/07 12:20:38;;;;;;;8.68;4.60;;;0.40;1.00;;;;;;5052633;28;20053;-74
2024/01/07 12:23:08;;;;;;;9.27;5.13;;;0.60;1.00;;;;;;5052861;28;20025;-73
2024/01/07 12:25:34;;;;;;;9.02;5.10;;;0.40;1.00;;;;;;5052984;28;20047;-74
2024/01/07 12:28:00;;;;;;;8.25;4.63;;;0.60;1.00;;;;;;5052485;28;20112;-75
2024/01/07 12:30:26;;;;;;;10.48;4.78;;;0.50;1.00;;;;;;5052887;28;20130;-74
2024/01/07 12:32:52;;;;;;;5.55;3.40;;;0.50;1.00;;;;;;5052863;28;20035;-75
2024/01/07 12:35:18;;;;;;;7.53;4.25;;;0.50;1.00;;;;;;5052359;28;20029;-76
2024/01/07 12:37:44;;;;;;;5.82;4.10;;;0.40;1.00;;;;;;5052715;28;20031;-75